Time;durP1;ratioP1;P1;durP2;ratioP2;P2;SDS_P1;SDS_P2;PMS_P1;PMS_P2;Temp;Humidity;BMP_temperature;BMP_pressure;BME280_temperature;BME280_humidity;BME280_pressure;Samples;Min_cycle;Max_cycle;Signal;HPM_P1;HPM_P2
2022/11/11 00:02:01;;;;;;;14.53;3.77;;;10.20;99.90;;;;;;5035904;28;20309;-76
2022/11/11 00:04:27;;;;;;;9.50;3.60;;;10.10;99.90;;;;;;5036428;28;20575;-78
2022/11/11 00:06:52;;;;;;;8.50;3.57;;;10.10;99.90;;;;;;5036669;28;20211;-76
2022/11/11 00:09:18;;;;;;;5.73;3.10;;;10.10;99.90;;;;;;5040808;28;20208;-72
2022/11/11 00:11:44;;;;;;;7.10;3.10;;;10.10;99.90;;;;;;5031353;28;20218;-72
2022/11/11 00:14:09;;;;;;;4.57;3.27;;;10.10;99.90;;;;;;5036020;28;20222;-76
2022/11/11 00:25:05;;;;;;;7.93;2.87;;;9.90;99.90;;;;;;5036469;28;20206;-72
2022/11/11 00:27:30;;;;;;;6.83;3.37;;;9.90;99.90;;;;;;5032514;28;20207;-74
2022/11/11 00:29:56;;;;;;;11.27;3.60;;;9.80;99.90;;;;;;5036793;28;20203;-73
2022/11/11 00:32:21;;;;;;;14.70;4.10;;;9.80;99.90;;;;;;5033698;28;20208;-72
2022/11/11 00:37:32;;;;;;;7.23;3.27;;;9.80;99.90;;;;;;5026153;28;20268;-75
2022/11/11 00:39:58;;;;;;;8.57;3.27;;;9.80;99.90;;;;;;5027244;28;20493;-72
2022/11/11 00:42:24;;;;;;;8.40;2.70;;;9.80;99.90;;;;;;5026557;28;20261;-74
2022/11/11 00:44:50;;;;;;;6.03;2.70;;;9.80;99.90;;;;;;5026882;28;20225;-75
2022/11/11 00:52:46;;;;;;;8.70;3.37;;;9.70;99.90;;;;;;5023903;28;20210;-72
2022/11/11 00:55:13;;;;;;;5.20;3.50;;;9.60;99.90;;;;;;5026882;28;20326;-71
2022/11/11 00:57:39;;;;;;;9.03;3.80;;;9.70;99.90;;;;;;5025924;28;20625;-70
2022/11/11 01:00:05;;;;;;;10.53;3.77;;;9.60;99.90;;;;;;5027205;28;20203;-71
2022/11/11 01:02:30;;;;;;;4.77;2.80;;;9.60;99.90;;;;;;5033723;28;20213;-70
2022/11/11 01:04:56;;;;;;;8.97;3.10;;;9.60;99.90;;;;;;5022294;28;20737;-69
2022/11/11 01:07:21;;;;;;;4.10;2.43;;;9.50;99.90;;;;;;5028403;28;20211;-68
2022/11/11 01:09:47;;;;;;;4.83;2.60;;;9.50;99.90;;;;;;5022537;28;20673;-69
2022/11/11 01:12:12;;;;;;;5.67;3.13;;;9.50;99.90;;;;;;5030004;28;20919;-75
2022/11/11 01:14:38;;;;;;;7.07;3.03;;;9.50;99.90;;;;;;5017527;28;20250;-75
2022/11/11 01:17:05;;;;;;;5.97;3.10;;;9.40;99.90;;;;;;5035072;28;20206;-74
2022/11/11 01:19:30;;;;;;;6.50;2.53;;;9.40;99.90;;;;;;5026042;28;20211;-68
2022/11/11 01:21:56;;;;;;;13.10;3.20;;;9.50;99.90;;;;;;5026160;28;20226;-77
2022/11/11 01:24:21;;;;;;;8.23;3.20;;;9.40;99.90;;;;;;5023682;28;20286;-74
2022/11/11 01:26:47;;;;;;;13.77;3.30;;;9.40;99.90;;;;;;5025301;28;20222;-74
2022/11/11 01:29:12;;;;;;;8.07;3.60;;;9.40;99.90;;;;;;5025378;28;20285;-75
2022/11/11 01:31:38;;;;;;;5.00;3.00;;;9.40;99.90;;;;;;5026007;28;20202;-71
2022/11/11 01:34:03;;;;;;;9.73;3.47;;;9.40;99.90;;;;;;5034174;28;20262;-74
2022/11/11 01:36:29;;;;;;;8.43;3.23;;;9.40;99.90;;;;;;5035095;28;20767;-74
2022/11/11 01:38:58;;;;;;;7.03;3.67;;;9.40;99.90;;;;;;5034713;28;20212;-75
2022/11/11 01:41:33;;;;;;;8.30;3.20;;;9.40;99.90;;;;;;5024386;28;20674;-72
2022/11/11 01:44:13;;;;;;;6.67;3.40;;;9.40;99.90;;;;;;5025981;28;20968;-77
2022/11/11 01:46:59;;;;;;;9.97;3.43;;;9.30;99.90;;;;;;5026253;28;20206;-77
2022/11/11 01:49:47;;;;;;;6.83;3.73;;;9.40;99.90;;;;;;5021485;28;20211;-77
2022/11/11 01:52:30;;;;;;;5.00;2.97;;;9.40;99.90;;;;;;5025033;28;20874;-72
2022/11/11 01:55:09;;;;;;;9.00;3.30;;;9.40;99.90;;;;;;5025348;28;20230;-73
2022/11/11 01:58:12;;;;;;;7.57;3.37;;;9.40;99.90;;;;;;5021266;28;20206;-73
2022/11/11 02:00:38;;;;;;;11.90;3.33;;;9.30;99.90;;;;;;5025483;28;20283;-73
2022/11/11 02:03:07;;;;;;;6.17;3.17;;;9.30;99.90;;;;;;5028821;28;20297;-72
2022/11/11 02:05:45;;;;;;;11.90;3.40;;;9.30;99.90;;;;;;5037250;28;20251;-72
2022/11/11 02:08:33;;;;;;;13.50;4.53;;;9.30;99.90;;;;;;5026871;28;20203;-72
2022/11/11 02:14:34;;;;;;;9.13;2.90;;;9.30;99.90;;;;;;5029564;28;20203;-71
2022/11/11 02:16:51;;;;;;;6.20;3.20;;;9.30;99.90;;;;;;5027945;28;20230;-72
2022/11/11 02:19:30;;;;;;;4.77;3.37;;;9.30;99.90;;;;;;5028440;28;20211;-70
2022/11/11 02:22:00;;;;;;;3.57;2.93;;;9.30;99.90;;;;;;5027554;28;20223;-70
2022/11/11 02:24:27;;;;;;;7.10;3.03;;;9.30;99.90;;;;;;5031733;28;20261;-71
2022/11/11 02:26:54;;;;;;;4.17;3.13;;;9.30;99.90;;;;;;5036455;28;20273;-74
2022/11/11 02:29:21;;;;;;;7.30;3.50;;;9.30;99.90;;;;;;5038514;28;20254;-73
2022/11/11 02:31:46;;;;;;;6.03;2.53;;;9.30;99.90;;;;;;5025668;28;20307;-72
2022/11/11 02:34:12;;;;;;;6.50;2.93;;;9.30;99.90;;;;;;5028063;28;20447;-73
2022/11/11 02:36:39;;;;;;;9.03;3.97;;;9.30;99.90;;;;;;5028385;28;20264;-73
2022/11/11 02:39:04;;;;;;;5.77;2.50;;;9.40;99.90;;;;;;5033280;28;20216;-70
2022/11/11 02:44:14;;;;;;;5.13;2.40;;;9.30;99.90;;;;;;5025243;28;20210;-72
2022/11/11 02:46:39;;;;;;;9.93;3.60;;;9.30;99.90;;;;;;5029794;28;20208;-72
2022/11/11 02:49:05;;;;;;;8.57;3.10;;;9.30;99.90;;;;;;5028974;28;20528;-70
2022/11/11 02:51:30;;;;;;;6.03;2.60;;;9.30;99.90;;;;;;5026429;28;20281;-71
2022/11/11 02:53:57;;;;;;;6.37;2.63;;;9.30;99.90;;;;;;5028137;28;20207;-72
2022/11/11 02:59:07;;;;;;;5.93;3.03;;;9.30;99.90;;;;;;5027541;28;20223;-71
2022/11/11 03:01:33;;;;;;;3.77;2.87;;;9.30;99.90;;;;;;5028984;28;20197;-76
2022/11/11 03:03:58;;;;;;;6.60;3.53;;;9.30;99.90;;;;;;5028817;28;20244;-74
2022/11/11 03:06:24;;;;;;;6.43;2.90;;;9.30;99.90;;;;;;5030021;28;20203;-72
2022/11/11 03:08:49;;;;;;;7.33;2.90;;;9.30;99.90;;;;;;5029859;28;20547;-70
2022/11/11 03:11:26;;;;;;;8.27;3.83;;;9.30;99.90;;;;;;5026145;28;20195;-70
2022/11/11 03:13:52;;;;;;;7.47;3.03;;;9.20;99.90;;;;;;5027444;28;20214;-72
2022/11/11 03:19:02;;;;;;;5.87;3.33;;;9.30;99.90;;;;;;5027293;28;20209;-71
2022/11/11 03:21:27;;;;;;;6.70;3.07;;;9.30;99.90;;;;;;5025625;28;20195;-71
2022/11/11 03:23:53;;;;;;;4.73;3.00;;;9.30;99.90;;;;;;5028600;28;20241;-71
2022/11/11 03:26:18;;;;;;;7.63;3.50;;;9.30;99.90;;;;;;5029123;28;20200;-72
2022/11/11 03:28:44;;;;;;;5.73;2.70;;;9.30;99.90;;;;;;5025293;28;20213;-73
2022/11/11 03:31:10;;;;;;;4.53;3.00;;;9.30;99.90;;;;;;5039309;28;20211;-74
2022/11/11 03:33:35;;;;;;;4.87;3.60;;;9.30;99.90;;;;;;5034863;28;20306;-74
2022/11/11 03:36:00;;;;;;;8.53;3.33;;;9.30;99.90;;;;;;5028766;28;20193;-75
2022/11/11 03:38:26;;;;;;;11.03;3.47;;;9.30;99.90;;;;;;5025555;28;20212;-74
2022/11/11 03:40:53;;;;;;;4.77;3.20;;;9.20;99.90;;;;;;5030988;28;20959;-78
2022/11/11 03:43:20;;;;;;;4.30;3.07;;;9.20;99.90;;;;;;5023303;28;20293;-78
2022/11/11 03:45:46;;;;;;;11.13;4.73;;;9.20;99.90;;;;;;5028206;28;20207;-80
2022/11/11 03:48:12;;;;;;;5.77;3.43;;;9.20;99.90;;;;;;5028842;28;20215;-77
2022/11/11 03:50:38;;;;;;;5.00;2.90;;;9.10;99.90;;;;;;5029766;28;20199;-76
2022/11/11 03:53:04;;;;;;;8.23;3.33;;;9.10;99.90;;;;;;5029672;28;20203;-80
2022/11/11 03:55:30;;;;;;;5.10;3.20;;;9.10;99.90;;;;;;5029457;28;20593;-72
2022/11/11 03:57:55;;;;;;;6.57;4.07;;;9.10;99.90;;;;;;5037348;28;20209;-74
2022/11/11 04:00:24;;;;;;;7.70;3.10;;;9.10;99.90;;;;;;5039733;28;20394;-73
2022/11/11 04:11:16;;;;;;;12.43;3.70;;;9.00;99.90;;;;;;5037535;28;20285;-72
2022/11/11 04:16:30;;;;;;;5.70;3.70;;;9.00;99.90;;;;;;5037487;28;20582;-71
2022/11/11 04:21:42;;;;;;;12.53;3.20;;;9.00;99.90;;;;;;5041120;28;20648;-72
2022/11/11 04:26:55;;;;;;;5.57;3.20;;;9.00;99.90;;;;;;5035342;28;20249;-73
2022/11/11 04:29:27;;;;;;;6.17;3.23;;;9.00;99.90;;;;;;5036395;28;20734;-72
2022/11/11 04:34:47;;;;;;;10.23;3.40;;;9.00;99.90;;;;;;5033036;28;20393;-71
2022/11/11 04:37:13;;;;;;;7.60;3.17;;;9.00;99.90;;;;;;5036208;28;20207;-72
2022/11/11 04:42:24;;;;;;;7.67;3.43;;;8.90;99.90;;;;;;5040937;28;20225;-73
2022/11/11 04:47:33;;;;;;;11.00;4.50;;;8.90;99.90;;;;;;5034769;28;20730;-72
2022/11/11 04:49:59;;;;;;;8.67;3.20;;;8.90;99.90;;;;;;5035145;28;20198;-72
2022/11/11 04:52:27;;;;;;;7.20;3.30;;;8.90;99.90;;;;;;5036069;28;20205;-72
2022/11/11 04:57:46;;;;;;;5.43;3.63;;;8.90;99.90;;;;;;5035512;28;20332;-72
2022/11/11 05:00:17;;;;;;;8.13;3.97;;;9.00;99.90;;;;;;5033177;28;20689;-73
2022/11/11 05:05:28;;;;;;;5.60;3.13;;;9.00;99.90;;;;;;5031476;28;20218;-76
2022/11/11 05:10:40;;;;;;;4.53;3.20;;;9.00;99.90;;;;;;5030493;28;20214;-77
2022/11/11 05:21:26;;;;;;;6.23;3.13;;;9.00;99.90;;;;;;5026270;28;20211;-77
2022/11/11 05:26:36;;;;;;;4.60;3.10;;;9.10;99.90;;;;;;5026675;28;20234;-77
2022/11/11 05:29:02;;;;;;;6.03;3.20;;;9.10;99.90;;;;;;5026313;28;21012;-78
2022/11/11 05:31:28;;;;;;;4.80;3.20;;;9.10;99.90;;;;;;5025951;28;20311;-78
2022/11/11 05:33:54;;;;;;;5.07;3.47;;;9.10;99.90;;;;;;5034581;28;22922;-78
2022/11/11 05:36:19;;;;;;;5.20;3.40;;;9.10;99.90;;;;;;5027646;28;20267;-77
2022/11/11 05:38:45;;;;;;;9.80;3.57;;;9.10;99.90;;;;;;5031168;28;20202;-77
2022/11/11 05:41:10;;;;;;;7.00;2.83;;;9.10;99.90;;;;;;5027184;28;20199;-77
2022/11/11 05:43:36;;;;;;;9.23;3.50;;;9.10;99.90;;;;;;5029288;28;20226;-78
2022/11/11 05:46:03;;;;;;;4.27;2.90;;;9.10;99.90;;;;;;5029532;28;20233;-78
2022/11/11 05:48:29;;;;;;;4.10;3.00;;;9.10;99.90;;;;;;5028781;28;20204;-75
2022/11/11 05:50:57;;;;;;;4.87;3.07;;;9.10;99.90;;;;;;5029170;28;20722;-77
2022/11/11 05:53:22;;;;;;;5.63;3.60;;;9.20;99.90;;;;;;5037737;28;20223;-76
2022/11/11 05:55:51;;;;;;;5.87;3.50;;;9.10;99.90;;;;;;5037442;28;20231;-70
2022/11/11 05:58:20;;;;;;;10.27;3.10;;;9.10;99.90;;;;;;5036833;28;20981;-67
2022/11/11 06:00:45;;;;;;;5.33;3.53;;;9.10;99.90;;;;;;5037961;28;20195;-73
2022/11/11 06:03:11;;;;;;;9.57;3.23;;;9.10;99.90;;;;;;5038947;28;20229;-67
2022/11/11 06:05:37;;;;;;;6.03;3.70;;;9.20;99.90;;;;;;5037009;28;20791;-70
2022/11/11 06:08:03;;;;;;;10.53;3.40;;;9.20;99.90;;;;;;5039097;28;20718;-82
2022/11/11 06:10:31;;;;;;;4.50;3.00;;;9.20;99.90;;;;;;5038890;28;20202;-70
2022/11/11 06:13:04;;;;;;;7.57;3.43;;;9.20;99.90;;;;;;5037572;28;20335;-70
2022/11/11 06:15:33;;;;;;;9.60;3.60;;;9.20;99.90;;;;;;5032904;28;20237;-78
2022/11/11 06:17:59;;;;;;;7.10;3.27;;;9.20;99.90;;;;;;5038838;28;20740;-78
2022/11/11 06:20:25;;;;;;;8.37;3.47;;;9.20;99.90;;;;;;5039850;28;20212;-78
2022/11/11 06:22:57;;;;;;;12.10;4.30;;;9.10;99.90;;;;;;5040112;28;20305;-79
2022/11/11 06:28:15;;;;;;;4.27;2.53;;;9.10;99.90;;;;;;5027888;28;20209;-65
2022/11/11 06:30:41;;;;;;;7.97;3.33;;;9.10;99.90;;;;;;5028754;28;20217;-76
2022/11/11 06:33:08;;;;;;;6.03;3.60;;;9.10;99.90;;;;;;5029853;28;20215;-77
2022/11/11 06:35:35;;;;;;;6.20;3.47;;;9.10;99.90;;;;;;5026250;28;20742;-73
2022/11/11 06:38:01;;;;;;;8.60;4.13;;;9.10;99.90;;;;;;5028592;28;20207;-71
2022/11/11 06:40:27;;;;;;;8.00;3.43;;;9.10;99.90;;;;;;5026588;28;20208;-74
2022/11/11 06:42:53;;;;;;;8.70;3.47;;;9.10;99.90;;;;;;5028699;28;20239;-70
2022/11/11 06:45:18;;;;;;;3.90;3.50;;;9.10;99.90;;;;;;5031457;28;20243;-71
2022/11/11 06:47:44;;;;;;;5.93;3.27;;;9.10;99.90;;;;;;5025083;28;20938;-76
2022/11/11 06:50:09;;;;;;;5.20;3.20;;;9.10;99.90;;;;;;5028918;28;20203;-77
2022/11/11 06:52:35;;;;;;;5.63;3.67;;;9.10;99.90;;;;;;5028954;28;20206;-78
2022/11/11 06:55:00;;;;;;;8.70;3.67;;;9.10;99.90;;;;;;5026950;28;20241;-78
2022/11/11 06:57:26;;;;;;;5.80;3.27;;;9.10;99.90;;;;;;5033861;28;20199;-78
2022/11/11 06:59:51;;;;;;;8.70;3.87;;;9.20;99.90;;;;;;5031141;28;20613;-78
2022/11/11 07:02:17;;;;;;;5.13;3.13;;;9.20;99.90;;;;;;5037300;28;20206;-78
2022/11/11 07:04:42;;;;;;;5.73;3.53;;;9.20;99.90;;;;;;5036744;28;20287;-74
2022/11/11 07:07:08;;;;;;;5.97;3.40;;;9.30;99.90;;;;;;5035613;28;20490;-72
2022/11/11 07:09:33;;;;;;;5.93;3.10;;;9.30;99.90;;;;;;5034093;28;20251;-74
2022/11/11 07:11:59;;;;;;;5.40;3.43;;;9.30;99.90;;;;;;5037472;28;20206;-70
2022/11/11 07:14:26;;;;;;;6.23;3.50;;;9.30;99.90;;;;;;5037697;28;20577;-72
2022/11/11 07:16:51;;;;;;;3.47;3.17;;;9.40;99.90;;;;;;5034023;28;20223;-76
2022/11/11 07:19:17;;;;;;;5.00;3.00;;;9.40;99.90;;;;;;5031796;28;20235;-68
2022/11/11 07:21:42;;;;;;;4.87;2.80;;;9.40;99.90;;;;;;5022691;28;20199;-72
2022/11/11 07:24:08;;;;;;;6.90;3.37;;;9.40;99.90;;;;;;5037940;28;20607;-74
2022/11/11 07:26:33;;;;;;;6.87;3.03;;;9.40;99.90;;;;;;5027874;28;20508;-77
2022/11/11 07:28:59;;;;;;;3.67;2.77;;;9.50;99.90;;;;;;5027551;28;20380;-76
2022/11/11 07:31:24;;;;;;;9.83;3.10;;;9.50;99.90;;;;;;5029190;28;21009;-68
2022/11/11 07:33:50;;;;;;;9.10;3.90;;;9.50;99.90;;;;;;5029453;28;20230;-74
2022/11/11 07:36:15;;;;;;;5.17;2.97;;;9.60;99.90;;;;;;5037256;28;20199;-67
2022/11/11 07:38:41;;;;;;;8.50;3.53;;;9.60;99.90;;;;;;5035643;28;20205;-69
2022/11/11 07:41:06;;;;;;;4.97;3.10;;;9.60;99.90;;;;;;5037686;28;20212;-72
2022/11/11 07:43:32;;;;;;;6.10;3.53;;;9.70;99.90;;;;;;5036964;28;20223;-77
2022/11/11 07:45:57;;;;;;;9.00;3.23;;;9.70;99.90;;;;;;5034731;28;20268;-73
2022/11/11 07:48:22;;;;;;;6.37;3.23;;;9.70;99.90;;;;;;5031085;28;20671;-73
2022/11/11 07:50:51;;;;;;;7.17;3.37;;;9.70;99.90;;;;;;5025158;28;20560;-71
2022/11/11 07:53:17;;;;;;;7.23;3.80;;;9.80;99.90;;;;;;5025854;28;20630;-73
2022/11/11 07:55:45;;;;;;;8.87;3.43;;;9.70;99.90;;;;;;5026179;28;20304;-76
2022/11/11 07:58:10;;;;;;;7.67;4.20;;;9.80;99.90;;;;;;5030624;28;20292;-75
2022/11/11 08:00:36;;;;;;;5.67;3.40;;;9.70;99.90;;;;;;5022951;28;20754;-75
2022/11/11 08:03:01;;;;;;;4.03;2.53;;;9.80;99.90;;;;;;5026889;28;20692;-79
2022/11/11 08:05:28;;;;;;;6.07;3.20;;;9.80;99.90;;;;;;5019698;28;20226;-74
2022/11/11 08:07:53;;;;;;;4.17;2.97;;;9.80;99.90;;;;;;5029485;28;20216;-77
2022/11/11 08:10:19;;;;;;;6.43;3.40;;;9.80;99.90;;;;;;5023077;28;20201;-75
2022/11/11 08:15:29;;;;;;;5.00;3.33;;;9.90;99.90;;;;;;5026189;28;20613;-70
2022/11/11 08:17:54;;;;;;;10.97;3.00;;;10.00;99.90;;;;;;5026573;28;20207;-74
2022/11/11 08:20:20;;;;;;;8.53;3.53;;;10.10;99.90;;;;;;5026726;28;21081;-74
2022/11/11 08:22:45;;;;;;;5.10;3.30;;;10.10;99.90;;;;;;5025812;28;20241;-74
2022/11/11 08:25:15;;;;;;;5.07;2.87;;;10.10;99.90;;;;;;5029871;28;20261;-74
2022/11/11 08:27:40;;;;;;;7.17;3.20;;;10.20;99.90;;;;;;5020340;28;20550;-74
2022/11/11 08:30:08;;;;;;;6.43;3.87;;;10.20;99.90;;;;;;5037409;28;20205;-74
2022/11/11 08:32:33;;;;;;;9.23;2.60;;;10.30;99.90;;;;;;5027815;28;20202;-74
2022/11/11 08:34:59;;;;;;;5.03;2.47;;;10.30;99.90;;;;;;5036791;28;20734;-71
2022/11/11 08:37:24;;;;;;;8.77;3.80;;;10.30;99.90;;;;;;5035650;28;20218;-71
2022/11/11 08:39:51;;;;;;;5.50;3.20;;;10.30;99.90;;;;;;5034022;28;20206;-69
2022/11/11 08:42:17;;;;;;;6.43;3.53;;;10.40;99.90;;;;;;5036250;28;20220;-70
2022/11/11 08:44:42;;;;;;;4.57;2.97;;;10.50;99.90;;;;;;5036003;28;20276;-71
2022/11/11 08:47:08;;;;;;;7.53;3.40;;;10.60;99.90;;;;;;5035844;28;20274;-71
2022/11/11 08:49:33;;;;;;;7.80;3.60;;;10.70;99.90;;;;;;5036354;28;20197;-74
2022/11/11 08:51:59;;;;;;;5.67;2.37;;;10.80;99.90;;;;;;5035478;28;20225;-71
2022/11/11 08:54:24;;;;;;;5.93;3.10;;;10.90;99.90;;;;;;5034678;28;20220;-71
2022/11/11 08:56:50;;;;;;;8.67;3.30;;;11.00;99.90;;;;;;5034404;28;20281;-72
2022/11/11 08:59:15;;;;;;;3.73;2.27;;;11.10;99.90;;;;;;5023683;28;20792;-68
2022/11/11 09:01:40;;;;;;;5.60;2.93;;;11.20;99.90;;;;;;5026401;28;20969;-68
2022/11/11 09:04:06;;;;;;;4.23;2.80;;;11.20;99.90;;;;;;5026063;28;20238;-69
2022/11/11 09:06:31;;;;;;;5.73;3.20;;;11.20;99.90;;;;;;5026228;28;20197;-70
2022/11/11 09:08:57;;;;;;;9.90;3.00;;;11.20;99.90;;;;;;5028142;28;20205;-70
2022/11/11 09:11:22;;;;;;;4.87;3.07;;;11.30;99.90;;;;;;5025386;28;20277;-72
2022/11/11 09:13:48;;;;;;;6.07;3.47;;;11.30;99.90;;;;;;5025143;28;20203;-71
2022/11/11 09:16:14;;;;;;;7.13;2.80;;;11.30;99.90;;;;;;5024750;28;20900;-76
2022/11/11 09:18:40;;;;;;;6.93;3.33;;;11.30;99.90;;;;;;5025331;28;20258;-72
2022/11/11 09:21:06;;;;;;;14.93;3.13;;;11.30;99.90;;;;;;5027699;28;20210;-71
2022/11/11 09:23:31;;;;;;;8.90;3.33;;;11.40;99.90;;;;;;5029941;28;20763;-72
2022/11/11 09:26:02;;;;;;;4.70;3.73;;;11.40;99.90;;;;;;5035454;28;20201;-72
2022/11/11 09:28:28;;;;;;;4.33;2.83;;;11.50;99.90;;;;;;5034830;28;20211;-72
2022/11/11 09:30:54;;;;;;;11.83;3.30;;;11.60;99.90;;;;;;5035204;28;20202;-72
2022/11/11 09:33:19;;;;;;;6.53;2.90;;;11.60;99.90;;;;;;5033580;28;20580;-71
2022/11/11 09:35:45;;;;;;;5.97;2.37;;;11.60;99.90;;;;;;5035147;28;20373;-71
2022/11/11 09:38:10;;;;;;;4.17;2.37;;;11.60;99.90;;;;;;5034910;28;20204;-72
2022/11/11 09:40:58;;;;;;;5.47;2.83;;;11.70;99.90;;;;;;5035303;28;20639;-71
2022/11/11 09:43:46;;;;;;;7.87;3.07;;;11.70;99.90;;;;;;5035601;28;20292;-72
2022/11/11 09:46:24;;;;;;;3.27;2.63;;;11.80;99.90;;;;;;5035040;28;20682;-71
2022/11/11 09:49:33;;;;;;;6.17;2.90;;;11.80;99.90;;;;;;5033267;28;20205;-72
2022/11/11 09:52:21;;;;;;;4.53;2.70;;;11.80;99.90;;;;;;5034997;28;20219;-72
2022/11/11 09:55:00;;;;;;;3.73;2.70;;;11.90;99.90;;;;;;5029616;28;20292;-71
2022/11/11 09:57:34;;;;;;;3.43;2.83;;;11.90;99.90;;;;;;5036328;28;20219;-71
2022/11/11 10:00:03;;;;;;;4.73;2.50;;;12.00;99.90;;;;;;5035374;28;20234;-71
2022/11/11 10:02:40;;;;;;;4.83;2.60;;;12.00;99.90;;;;;;5034695;28;20582;-72
2022/11/11 10:05:14;;;;;;;5.07;2.70;;;12.10;99.90;;;;;;5033743;28;20240;-71
2022/11/11 10:07:57;;;;;;;5.73;2.80;;;12.20;99.90;;;;;;5034807;28;20217;-73
2022/11/11 10:10:43;;;;;;;4.27;2.63;;;12.20;99.90;;;;;;5035145;28;20248;-72
2022/11/11 10:13:19;;;;;;;8.03;2.97;;;12.20;99.90;;;;;;5033736;28;20256;-74
2022/11/11 10:16:11;;;;;;;4.67;2.40;;;12.30;99.90;;;;;;5034878;28;20206;-72
2022/11/11 10:18:52;;;;;;;3.50;2.23;;;12.40;99.90;;;;;;5023971;28;20218;-72
2022/11/11 10:21:47;;;;;;;6.70;2.50;;;12.50;99.90;;;;;;5024767;28;20679;-72
2022/11/11 10:24:31;;;;;;;8.43;2.93;;;12.50;99.90;;;;;;5026055;28;20447;-72
2022/11/11 10:27:00;;;;;;;4.53;2.23;;;12.60;99.90;;;;;;5028528;28;20214;-69
2022/11/11 10:29:29;;;;;;;8.33;2.47;;;12.70;99.90;;;;;;5026835;28;20265;-65
2022/11/11 10:32:01;;;;;;;5.50;2.73;;;12.70;99.90;;;;;;5028452;28;20209;-68
2022/11/11 10:34:32;;;;;;;6.47;2.47;;;12.70;99.90;;;;;;5028831;28;20209;-69
2022/11/11 10:36:59;;;;;;;6.57;2.70;;;12.80;99.90;;;;;;5026643;28;20210;-68
2022/11/11 10:39:55;;;;;;;4.70;2.07;;;12.80;99.90;;;;;;5028327;28;20220;-68
2022/11/11 10:42:20;;;;;;;2.63;2.33;;;12.90;99.90;;;;;;5025235;28;20698;-68
2022/11/11 10:44:46;;;;;;;3.37;2.13;;;12.90;99.90;;;;;;5028726;28;20229;-69
2022/11/11 10:47:38;;;;;;;4.53;2.47;;;13.00;99.90;;;;;;5029944;28;20666;-69
2022/11/11 10:50:25;;;;;;;4.83;2.43;;;13.00;99.90;;;;;;5028727;28;20202;-67
2022/11/11 10:52:59;;;;;;;7.27;2.30;;;13.10;99.90;;;;;;5028559;28;20698;-71
2022/11/11 10:55:42;;;;;;;8.00;3.30;;;13.20;99.90;;;;;;5027672;28;20275;-69
2022/11/11 10:58:36;;;;;;;4.57;3.17;;;13.30;99.90;;;;;;5033876;28;20253;-68
2022/11/11 11:01:06;;;;;;;5.27;2.33;;;13.40;99.90;;;;;;5036203;28;20281;-69
2022/11/11 11:03:35;;;;;;;3.07;2.30;;;13.40;99.90;;;;;;5032068;28;20283;-71
2022/11/11 11:06:09;;;;;;;4.40;2.23;;;13.40;99.90;;;;;;5026265;28;20206;-68
2022/11/11 11:08:40;;;;;;;6.10;2.90;;;13.50;99.90;;;;;;5027652;28;20202;-67
2022/11/11 11:11:17;;;;;;;2.07;1.77;;;13.50;99.90;;;;;;5027394;28;20219;-67
2022/11/11 11:13:49;;;;;;;3.57;1.83;;;13.60;99.90;;;;;;5034578;28;20206;-60
2022/11/11 11:16:22;;;;;;;4.10;1.87;;;13.70;99.90;;;;;;5037010;28;20796;-60
2022/11/11 11:19:17;;;;;;;3.17;2.00;;;13.70;99.90;;;;;;5036045;28;20329;-62
2022/11/11 11:21:53;;;;;;;3.83;2.40;;;13.70;99.90;;;;;;5031968;28;20203;-65
2022/11/11 11:24:26;;;;;;;2.13;1.70;;;13.70;99.90;;;;;;5038058;28;20214;-71
2022/11/11 11:26:54;;;;;;;4.03;2.00;;;13.70;99.90;;;;;;5037791;28;20210;-71
2022/11/11 11:29:25;;;;;;;3.47;1.63;;;13.70;99.90;;;;;;5036435;28;20195;-71
2022/11/11 11:31:51;;;;;;;4.90;2.73;;;13.60;99.90;;;;;;5035481;28;20286;-70
2022/11/11 11:34:17;;;;;;;13.17;5.33;;;13.60;99.90;;;;;;5040634;28;20313;-70
2022/11/11 11:36:42;;;;;;;4.13;1.70;;;13.50;99.90;;;;;;5032326;28;20260;-70
2022/11/11 11:39:08;;;;;;;3.17;1.77;;;13.60;99.90;;;;;;5027128;28;20209;-69
2022/11/11 11:41:50;;;;;;;3.33;2.20;;;13.60;99.90;;;;;;5023413;28;20195;-70
2022/11/11 11:44:35;;;;;;;4.97;2.77;;;13.70;99.90;;;;;;5027608;28;20721;-71
2022/11/11 11:47:41;;;;;;;2.70;1.57;;;13.80;99.90;;;;;;5026888;28;20628;-71
2022/11/11 11:50:25;;;;;;;2.50;1.70;;;13.70;99.90;;;;;;5027732;28;20206;-70
2022/11/11 11:53:21;;;;;;;1.70;1.43;;;13.70;99.90;;;;;;5026279;28;20632;-70
2022/11/11 11:55:54;;;;;;;3.50;1.80;;;13.70;99.90;;;;;;5024701;28;20261;-70
2022/11/11 11:58:40;;;;;;;1.73;1.63;;;13.80;99.90;;;;;;5026314;28;20226;-70
2022/11/11 12:01:34;;;;;;;2.47;1.87;;;13.90;99.90;;;;;;5026525;28;20207;-71
2022/11/11 12:04:35;;;;;;;2.53;1.40;;;14.10;99.90;;;;;;5027161;28;20219;-71
2022/11/11 12:07:17;;;;;;;4.77;1.50;;;14.20;99.90;;;;;;5024488;28;20210;-71
2022/11/11 12:10:20;;;;;;;2.40;1.93;;;14.20;99.90;;;;;;5027024;28;20195;-70
2022/11/11 12:13:27;;;;;;;5.13;1.90;;;14.10;99.90;;;;;;5025705;28;20677;-70
2022/11/11 12:16:31;;;;;;;2.60;1.63;;;14.10;99.90;;;;;;5027450;28;20267;-71
2022/11/11 12:19:28;;;;;;;2.87;1.87;;;14.00;99.90;;;;;;5018333;28;20213;-71
2022/11/11 12:22:21;;;;;;;3.10;1.37;;;14.00;99.90;;;;;;5025629;28;20207;-71
2022/11/11 12:24:56;;;;;;;1.63;1.50;;;14.00;99.90;;;;;;5024164;28;20673;-71
2022/11/11 12:27:30;;;;;;;3.70;1.90;;;14.10;99.90;;;;;;5024334;28;20198;-70
2022/11/11 12:30:29;;;;;;;2.53;1.40;;;14.10;99.90;;;;;;5026242;28;20717;-71
2022/11/11 12:33:23;;;;;;;2.63;1.73;;;14.20;99.90;;;;;;5025312;28;20213;-72
2022/11/11 12:36:09;;;;;;;5.97;1.90;;;14.50;99.90;;;;;;5026288;28;20603;-71
2022/11/11 12:39:01;;;;;;;3.63;2.47;;;14.60;99.90;;;;;;5031938;28;20198;-71
2022/11/11 12:42:04;;;;;;;3.77;1.70;;;14.60;99.90;;;;;;5035715;28;20588;-71
2022/11/11 12:44:54;;;;;;;3.13;1.87;;;14.70;99.90;;;;;;5012729;28;20233;-71
2022/11/11 12:47:38;;;;;;;2.67;1.73;;;14.90;99.90;;;;;;5026711;28;20207;-72
2022/11/11 12:50:22;;;;;;;3.67;1.03;;;14.90;99.90;;;;;;5038985;28;20271;-70
2022/11/11 12:53:13;;;;;;;5.03;2.00;;;15.10;99.90;;;;;;5033705;28;20210;-71
2022/11/11 12:56:01;;;;;;;2.67;1.53;;;15.20;99.90;;;;;;5023586;28;20595;-68
2022/11/11 12:58:50;;;;;;;3.10;1.50;;;15.30;99.90;;;;;;5017814;28;20333;-67
2022/11/11 13:01:30;;;;;;;3.83;1.50;;;15.40;99.90;;;;;;5036559;28;20206;-71
2022/11/11 13:04:23;;;;;;;5.73;2.40;;;15.50;99.90;;;;;;5036668;28;20222;-72
2022/11/11 13:07:19;;;;;;;4.23;2.10;;;15.60;99.90;;;;;;5027825;28;20845;-74
2022/11/11 13:10:09;;;;;;;2.30;1.67;;;15.60;99.90;;;;;;5018862;28;20474;-71
2022/11/11 13:13:00;;;;;;;3.30;1.70;;;15.60;99.90;;;;;;5026834;28;20335;-73
2022/11/11 13:15:26;;;;;;;1.87;1.57;;;15.60;99.90;;;;;;5026071;28;20229;-73
2022/11/11 13:17:52;;;;;;;1.97;1.30;;;15.50;99.90;;;;;;5026030;28;20270;-68
2022/11/11 13:20:39;;;;;;;2.50;1.87;;;15.40;99.90;;;;;;5023692;28;20200;-74
2022/11/11 13:23:09;;;;;;;5.67;1.90;;;15.20;99.90;;;;;;5026435;28;20293;-77
2022/11/11 13:25:38;;;;;;;2.00;1.40;;;15.00;99.90;;;;;;5025279;28;20685;-75
2022/11/11 13:28:31;;;;;;;3.03;1.73;;;14.90;99.90;;;;;;5031192;28;20617;-58
2022/11/11 13:31:08;;;;;;;1.40;1.30;;;14.80;99.90;;;;;;5035529;28;20314;-63
2022/11/11 13:33:44;;;;;;;3.80;1.70;;;14.60;99.90;;;;;;5036169;28;20233;-60
2022/11/11 13:36:15;;;;;;;3.43;1.60;;;14.60;99.90;;;;;;5035819;28;20238;-60
2022/11/11 13:38:50;;;;;;;1.97;1.27;;;14.50;99.90;;;;;;5036068;28;20202;-60
2022/11/11 13:41:30;;;;;;;2.47;2.07;;;14.50;99.90;;;;;;5036045;28;20218;-61
2022/11/11 13:44:01;;;;;;;2.87;1.87;;;14.50;99.90;;;;;;5035993;28;20218;-58
2022/11/11 13:46:34;;;;;;;2.97;1.70;;;14.50;99.90;;;;;;5036111;28;20226;-58
2022/11/11 13:49:03;;;;;;;3.37;1.87;;;14.40;99.90;;;;;;5035247;28;20352;-60
2022/11/11 13:51:41;;;;;;;2.93;1.53;;;14.40;99.90;;;;;;5035699;28;20205;-58
2022/11/11 13:54:47;;;;;;;3.67;1.67;;;14.40;99.90;;;;;;5035412;28;20218;-59
2022/11/11 13:57:12;;;;;;;2.73;1.50;;;14.30;99.90;;;;;;5035284;28;20308;-60
2022/11/11 13:59:42;;;;;;;4.40;1.90;;;14.30;99.90;;;;;;5034309;28;20218;-58
2022/11/11 14:02:19;;;;;;;4.27;1.77;;;14.20;99.90;;;;;;5036977;28;20202;-62
2022/11/11 14:05:07;;;;;;;3.00;1.73;;;14.20;99.90;;;;;;5029438;28;20198;-60
2022/11/11 14:07:47;;;;;;;2.30;1.43;;;14.10;99.90;;;;;;5026186;28;20199;-56
2022/11/11 14:10:16;;;;;;;1.87;1.77;;;14.10;99.90;;;;;;5032216;28;20287;-61
2022/11/11 14:12:52;;;;;;;2.10;1.87;;;14.10;99.90;;;;;;5028648;28;20214;-61
2022/11/11 14:15:40;;;;;;;4.10;1.90;;;14.00;99.90;;;;;;5028107;28;20257;-60
2022/11/11 14:18:17;;;;;;;3.83;1.93;;;14.00;99.90;;;;;;5025842;28;20199;-62
2022/11/11 14:20:48;;;;;;;4.47;1.73;;;13.90;99.90;;;;;;5024660;28;20231;-62
2022/11/11 14:23:34;;;;;;;2.67;1.67;;;13.90;99.90;;;;;;5027409;28;20728;-62
2022/11/11 14:26:05;;;;;;;2.97;1.57;;;13.90;99.90;;;;;;5023133;28;20959;-62
2022/11/11 14:28:35;;;;;;;4.77;2.37;;;13.80;99.90;;;;;;5024717;28;20604;-61
2022/11/11 14:31:12;;;;;;;4.97;1.97;;;13.80;99.90;;;;;;5017803;28;20994;-61
2022/11/11 14:33:45;;;;;;;5.53;2.33;;;13.80;99.90;;;;;;5023591;28;20517;-62